createdAt,value
2024-04-25T00:01:30.633Z,10.9173
2024-04-25T00:11:40.000Z,10.9218
2024-04-25T00:21:52.599Z,10.9205
2024-04-25T00:32:01.427Z,10.9205
2024-04-25T00:42:10.330Z,10.9193
2024-04-25T00:52:19.110Z,10.9200
2024-04-25T01:02:27.890Z,10.9214
2024-04-25T01:12:36.474Z,10.9211
2024-04-25T01:22:45.384Z,10.9205
2024-04-25T01:32:54.729Z,10.9207
2024-04-25T01:43:03.336Z,10.9207
2024-04-25T01:53:12.059Z,10.9259
2024-04-25T02:03:20.750Z,10.9280
2024-04-25T02:13:29.497Z,10.9236
2024-04-25T02:23:38.285Z,10.9268
2024-04-25T02:33:47.130Z,10.9277
2024-04-25T02:43:55.872Z,10.9336
2024-04-25T02:54:04.885Z,10.9345
2024-04-25T03:04:13.757Z,10.9355
2024-04-25T03:14:23.439Z,10.9375
2024-04-25T03:24:32.348Z,10.9355
2024-04-25T03:34:41.165Z,10.9336
2024-04-25T03:44:50.468Z,10.9280
2024-04-25T03:54:59.446Z,10.9127
2024-04-25T04:05:08.119Z,10.9175
2024-04-25T04:15:20.540Z,10.9200
2024-04-25T04:25:29.829Z,10.9173
2024-04-25T04:35:38.843Z,10.9200
2024-04-25T04:45:49.729Z,10.9216
2024-04-25T04:55:58.429Z,10.9348
2024-04-25T05:06:10.405Z,10.9391
2024-04-25T05:16:19.625Z,10.9402
2024-04-25T05:26:29.633Z,10.9407
2024-04-25T05:36:38.855Z,10.9400
2024-04-25T05:46:48.145Z,10.9407
2024-04-25T05:56:58.313Z,10.9425
2024-04-25T06:07:17.970Z,10.9493
2024-04-25T06:17:26.827Z,10.9502
2024-04-25T06:27:35.554Z,10.9493
2024-04-25T06:37:44.198Z,10.9475
2024-04-25T06:47:53.024Z,10.9498
2024-04-25T06:58:01.890Z,10.9498
2024-04-25T07:08:11.214Z,10.9489
2024-04-25T07:18:24.672Z,10.9459
2024-04-25T07:28:33.855Z,10.9459
2024-04-25T07:38:43.501Z,10.9470
2024-04-25T07:48:52.343Z,10.9461
2024-04-25T07:59:01.766Z,10.9480
2024-04-25T08:09:10.771Z,10.9455
2024-04-25T08:19:24.211Z,10.9443
2024-04-25T08:29:32.936Z,10.9443
2024-04-25T08:39:42.153Z,10.9414
2024-04-25T08:49:50.950Z,10.9366
2024-04-25T09:00:00.328Z,10.9364
2024-04-25T09:10:10.599Z,10.9282
2024-04-25T09:20:19.642Z,10.9216
2024-04-25T09:30:29.266Z,10.9143
2024-04-25T09:40:38.415Z,10.9111
2024-04-25T09:50:47.683Z,10.9095
2024-04-25T10:00:57.607Z,10.8945
2024-04-25T10:11:09.868Z,10.8798
2024-04-25T10:21:19.975Z,10.8793
2024-04-25T10:31:29.125Z,10.8809
2024-04-25T10:41:40.086Z,10.8823
2024-04-25T10:51:49.415Z,10.8805
2024-04-25T11:01:58.932Z,10.8802
2024-04-25T11:12:19.553Z,10.8786
2024-04-25T11:22:36.084Z,10.8734
2024-04-25T11:32:42.355Z,10.8707
2024-04-25T11:42:51.657Z,10.8686
2024-04-25T11:53:03.905Z,10.8666
2024-04-25T12:03:12.748Z,10.8466
2024-04-25T12:13:25.419Z,10.8377
2024-04-25T12:23:37.165Z,10.8309
2024-04-25T12:33:47.814Z,10.8275
2024-04-25T12:44:00.324Z,10.8145
2024-04-25T12:54:18.487Z,10.8036
2024-04-25T13:04:28.549Z,10.7966
2024-04-25T13:14:39.073Z,10.7825
2024-04-25T13:24:51.202Z,10.7652
2024-04-25T13:35:01.668Z,10.7611
2024-04-25T13:45:12.123Z,10.7518
2024-04-25T13:55:22.867Z,10.7359
2024-04-25T14:05:34.310Z,10.7257
2024-04-25T14:16:15.506Z,10.7210
2024-04-25T14:26:25.205Z,10.7105
2024-04-25T14:36:29.884Z,10.7037
2024-04-25T14:46:50.280Z,10.6909
2024-04-25T14:57:04.033Z,10.6875
2024-04-25T15:07:14.302Z,10.6823
2024-04-25T15:17:27.323Z,10.6716
2024-04-25T15:27:39.747Z,10.6625
2024-04-25T15:37:53.739Z,10.6430
2024-04-25T15:48:04.627Z,10.6280
2024-04-25T15:58:19.253Z,10.6170
2024-04-25T16:08:30.014Z,10.6118
2024-04-25T16:18:46.693Z,10.6055
2024-04-25T16:29:00.612Z,10.6016
2024-04-25T16:39:12.868Z,10.6007
2024-04-25T16:49:26.020Z,10.6000
2024-04-25T16:59:37.594Z,10.5998
2024-04-25T17:09:51.275Z,10.5973
2024-04-25T17:20:01.516Z,10.5934
2024-04-25T17:30:11.511Z,10.5902
2024-04-25T17:40:21.452Z,10.5868
2024-04-25T17:50:31.364Z,10.5830
2024-04-25T18:00:40.807Z,10.5802
2024-04-25T18:10:50.755Z,10.5839
2024-04-25T18:21:00.289Z,10.5818
2024-04-25T18:31:10.397Z,10.5848
2024-04-25T18:41:20.386Z,10.5827
2024-04-25T18:51:29.577Z,10.5818
2024-04-25T19:01:38.536Z,10.5841
2024-04-25T19:11:47.956Z,10.5811
2024-04-25T19:21:57.217Z,10.5805
2024-04-25T19:32:06.205Z,10.5805
2024-04-25T19:42:15.570Z,10.5820
2024-04-25T19:52:24.661Z,10.5882
2024-04-25T20:02:33.709Z,10.5975
2024-04-25T20:12:42.654Z,10.5950
2024-04-25T20:22:51.576Z,10.5936
2024-04-25T20:33:00.656Z,10.5989
2024-04-25T20:43:09.793Z,10.6000
2024-04-25T20:53:18.599Z,10.6000
2024-04-25T21:03:27.978Z,10.6005
2024-04-25T21:13:36.897Z,10.6009
2024-04-25T21:23:45.999Z,10.6050
2024-04-25T21:33:55.153Z,10.6073
2024-04-25T21:44:04.198Z,10.6225
2024-04-25T21:54:13.660Z,10.6125
2024-04-25T22:04:22.713Z,10.6089
2024-04-25T22:14:31.538Z,10.6095
2024-04-25T22:24:40.404Z,10.6107
2024-04-25T22:34:49.402Z,10.6120
2024-04-25T22:45:01.476Z,10.6159
2024-04-25T22:55:12.971Z,10.6207
2024-04-25T23:05:21.970Z,10.6209
2024-04-25T23:15:30.849Z,10.6216
2024-04-25T23:25:39.982Z,10.6314
2024-04-25T23:35:48.909Z,10.6380
2024-04-25T23:45:57.834Z,10.6375
2024-04-25T23:56:06.682Z,10.6486
